Time;durP1;ratioP1;P1;durP2;ratioP2;P2;SDS_P1;SDS_P2;PMS_P1;PMS_P2;Temp;Humidity;BMP_temperature;BMP_pressure;BME280_temperature;BME280_humidity;BME280_pressure;Samples;Min_cycle;Max_cycle;Signal;HPM_P1;HPM_P2
2023/03/13 00:01:50;;;;;;;5.05;3.50;;;;;;;;;;5052311;28;20211;-85
2023/03/13 00:04:18;;;;;;;4.53;3.20;;;;;;;;;;5053390;28;20572;-85
2023/03/13 00:06:46;;;;;;;3.88;2.45;;;;;;;;;;5036354;28;20202;-85
2023/03/13 00:09:16;;;;;;;3.97;2.85;;;;;;;;;;5054222;28;20232;-84
2023/03/13 00:11:46;;;;;;;7.35;4.07;;;;;;;;;;5054958;28;20207;-85
2023/03/13 00:14:14;;;;;;;3.70;2.90;;;;;;;;;;5053701;28;20209;-84
2023/03/13 00:16:43;;;;;;;4.35;3.53;;;;;;;;;;5054545;28;20197;-86
2023/03/13 00:19:11;;;;;;;8.30;3.15;;;;;;;;;;5054189;28;20221;-85
2023/03/13 00:21:40;;;;;;;7.85;3.40;;;;;;;;;;5053994;28;20241;-85
2023/03/13 00:24:09;;;;;;;6.55;2.20;;;;;;;;;;5053333;28;20289;-85
2023/03/13 00:26:37;;;;;;;6.07;2.70;;;;;;;;;;5057047;28;20220;-85
2023/03/13 00:29:09;;;;;;;6.05;2.45;;;;;;;;;;5072605;28;20228;-85
2023/03/13 00:31:37;;;;;;;5.80;2.60;;;;;;;;;;5074661;28;20287;-84
2023/03/13 00:34:08;;;;;;;7.78;3.15;;;;;;;;;;5074304;28;20201;-83
2023/03/13 00:36:41;;;;;;;3.95;1.92;;;;;;;;;;5075029;28;20242;-83
2023/03/13 00:39:09;;;;;;;4.82;2.80;;;;;;;;;;5075973;28;20225;-85
2023/03/13 00:41:38;;;;;;;2.80;2.20;;;;;;;;;;5074036;28;20205;-85
2023/03/13 00:44:07;;;;;;;4.88;3.00;;;;;;;;;;5074778;28;20722;-85
2023/03/13 00:46:34;;;;;;;6.78;2.85;;;;;;;;;;5074157;28;20205;-85
2023/03/13 00:49:02;;;;;;;8.02;2.42;;;;;;;;;;5073244;28;20221;-85
2023/03/13 00:51:32;;;;;;;5.68;2.22;;;;;;;;;;5073318;28;20258;-84
2023/03/13 00:54:00;;;;;;;5.60;3.15;;;;;;;;;;5073598;28;20200;-84
2023/03/13 00:56:30;;;;;;;6.60;2.83;;;;;;;;;;5051507;28;20244;-84
2023/03/13 00:58:59;;;;;;;8.27;2.80;;;;;;;;;;5052855;28;20308;-85
2023/03/13 01:01:29;;;;;;;10.00;3.45;;;;;;;;;;5053397;28;20596;-86
2023/03/13 01:04:02;;;;;;;7.05;2.33;;;;;;;;;;5072000;28;20192;-85
2023/03/13 01:06:34;;;;;;;7.28;2.70;;;;;;;;;;5073127;28;20204;-84
2023/03/13 01:09:03;;;;;;;5.15;2.95;;;;;;;;;;5072414;28;20221;-84
2023/03/13 01:11:34;;;;;;;7.97;2.50;;;;;;;;;;5074028;28;20201;-84
2023/03/13 01:14:04;;;;;;;8.65;2.90;;;;;;;;;;5073612;28;20670;-84
2023/03/13 01:16:34;;;;;;;6.43;2.55;;;;;;;;;;5073201;28;20295;-84
2023/03/13 01:19:14;;;;;;;10.00;3.28;;;;;;;;;;5071628;28;20225;-85
2023/03/13 01:21:46;;;;;;;7.25;2.38;;;;;;;;;;5072173;28;20579;-84
2023/03/13 01:24:15;;;;;;;5.72;2.70;;;;;;;;;;5074235;28;20275;-84
2023/03/13 01:26:43;;;;;;;5.90;2.80;;;;;;;;;;5067543;28;20304;-86
2023/03/13 01:29:11;;;;;;;3.85;2.22;;;;;;;;;;5052731;28;20228;-85
2023/03/13 01:31:38;;;;;;;9.65;2.75;;;;;;;;;;5052056;28;20726;-85
2023/03/13 01:34:06;;;;;;;4.35;2.17;;;;;;;;;;5053291;28;20545;-84
2023/03/13 01:36:35;;;;;;;5.70;2.08;;;;;;;;;;5053285;28;20293;-85
2023/03/13 01:39:05;;;;;;;4.30;2.22;;;;;;;;;;5055324;28;20227;-84
2023/03/13 01:41:32;;;;;;;6.18;2.55;;;;;;;;;;5056572;28;20667;-84
2023/03/13 01:44:02;;;;;;;4.15;1.90;;;;;;;;;;5056855;28;20288;-84
2023/03/13 01:46:30;;;;;;;7.35;2.80;;;;;;;;;;5056670;28;20654;-84
2023/03/13 01:49:02;;;;;;;8.98;2.83;;;;;;;;;;5056493;28;20429;-84
2023/03/13 01:51:32;;;;;;;12.05;2.15;;;;;;;;;;5055625;28;20551;-84
2023/03/13 01:54:07;;;;;;;9.35;2.60;;;;;;;;;;5056729;28;20696;-84
2023/03/13 01:56:40;;;;;;;5.32;3.00;;;;;;;;;;5060442;28;20572;-85
2023/03/13 01:59:13;;;;;;;7.28;2.65;;;;;;;;;;5074954;28;20342;-85
2023/03/13 02:01:42;;;;;;;7.55;2.67;;;;;;;;;;5076556;28;20212;-85
2023/03/13 02:04:10;;;;;;;5.32;2.42;;;;;;;;;;5076854;28;20214;-84
2023/03/13 02:06:40;;;;;;;4.57;2.60;;;;;;;;;;5076815;28;20232;-84
2023/03/13 02:09:12;;;;;;;3.17;1.95;;;;;;;;;;5074526;28;20221;-84
2023/03/13 02:11:49;;;;;;;4.05;1.90;;;;;;;;;;5076586;28;20196;-84
2023/03/13 02:14:19;;;;;;;5.88;2.10;;;;;;;;;;5076312;28;20180;-85
2023/03/13 02:16:50;;;;;;;6.20;2.20;;;;;;;;;;5076349;28;20274;-85
2023/03/13 02:19:22;;;;;;;6.18;2.83;;;;;;;;;;5076270;28;20776;-84
2023/03/13 02:21:54;;;;;;;8.95;2.25;;;;;;;;;;5075172;28;20242;-85
2023/03/13 02:24:33;;;;;;;8.60;3.10;;;;;;;;;;5075398;28;20664;-84
2023/03/13 02:27:02;;;;;;;4.80;2.05;;;;;;;;;;5076236;28;20219;-86
2023/03/13 02:29:30;;;;;;;5.57;2.50;;;;;;;;;;5057896;28;20296;-85
2023/03/13 02:31:58;;;;;;;6.53;2.67;;;;;;;;;;5075883;28;20666;-84
2023/03/13 02:34:39;;;;;;;8.77;2.38;;;;;;;;;;5075958;28;20617;-85
2023/03/13 02:37:09;;;;;;;11.15;3.67;;;;;;;;;;5076208;28;20185;-84
2023/03/13 02:39:41;;;;;;;7.55;2.63;;;;;;;;;;5075345;28;20224;-85
2023/03/13 02:42:10;;;;;;;6.75;3.08;;;;;;;;;;5076140;28;20280;-85
2023/03/13 02:44:40;;;;;;;5.13;2.05;;;;;;;;;;5075768;28;20682;-85
2023/03/13 02:47:08;;;;;;;4.90;3.10;;;;;;;;;;5075817;28;20201;-85
2023/03/13 02:49:38;;;;;;;8.00;2.72;;;;;;;;;;5074306;28;20217;-84
2023/03/13 02:52:12;;;;;;;6.68;2.67;;;;;;;;;;5075016;28;20254;-84
2023/03/13 02:54:40;;;;;;;5.70;2.00;;;;;;;;;;5075510;28;20289;-86
2023/03/13 02:57:09;;;;;;;6.22;2.17;;;;;;;;;;5065063;28;20205;-85
2023/03/13 02:59:37;;;;;;;5.43;2.85;;;;;;;;;;5054726;28;20604;-84
2023/03/13 03:02:05;;;;;;;8.35;4.45;;;;;;;;;;5053761;28;20285;-84
2023/03/13 03:04:34;;;;;;;6.03;2.17;;;;;;;;;;5054937;28;20635;-84
2023/03/13 03:07:02;;;;;;;9.63;3.28;;;;;;;;;;5055017;28;20291;-85
2023/03/13 03:09:31;;;;;;;5.20;2.45;;;;;;;;;;5053376;28;20257;-84
2023/03/13 03:11:59;;;;;;;10.13;2.92;;;;;;;;;;5055333;28;20289;-84
2023/03/13 03:14:31;;;;;;;9.70;2.58;;;;;;;;;;5037196;28;20237;-85
2023/03/13 03:16:59;;;;;;;5.88;2.63;;;;;;;;;;5054072;28;20656;-85
2023/03/13 03:19:27;;;;;;;6.95;2.72;;;;;;;;;;5053555;28;20229;-84
2023/03/13 03:21:55;;;;;;;3.35;2.30;;;;;;;;;;5054240;28;20215;-84
2023/03/13 03:24:23;;;;;;;7.60;2.72;;;;;;;;;;5055111;28;20212;-84
2023/03/13 03:26:50;;;;;;;9.25;2.35;;;;;;;;;;5061668;28;20217;-85
2023/03/13 03:29:19;;;;;;;5.78;2.92;;;;;;;;;;5072097;28;20220;-84
2023/03/13 03:31:50;;;;;;;6.80;2.70;;;;;;;;;;5074440;28;20243;-85
2023/03/13 03:34:18;;;;;;;6.45;2.58;;;;;;;;;;5057090;28;20205;-85
2023/03/13 03:36:45;;;;;;;6.38;2.70;;;;;;;;;;5074643;28;20633;-85
2023/03/13 03:39:13;;;;;;;6.68;2.95;;;;;;;;;;5073569;28;20695;-84
2023/03/13 03:41:42;;;;;;;5.55;2.78;;;;;;;;;;5074218;28;20200;-85
2023/03/13 03:44:12;;;;;;;7.40;2.63;;;;;;;;;;5073530;28;20232;-85
2023/03/13 03:46:43;;;;;;;10.02;2.70;;;;;;;;;;5074572;28;20185;-84
2023/03/13 03:49:12;;;;;;;7.30;3.00;;;;;;;;;;5073352;28;20312;-84
2023/03/13 03:51:39;;;;;;;11.32;2.80;;;;;;;;;;5073643;28;20312;-85
2023/03/13 03:54:07;;;;;;;6.45;2.78;;;;;;;;;;5074417;28;20207;-84
2023/03/13 03:56:35;;;;;;;11.70;3.45;;;;;;;;;;5074240;28;20204;-85
2023/03/13 03:59:03;;;;;;;6.70;2.72;;;;;;;;;;5073580;28;20588;-84
2023/03/13 04:01:30;;;;;;;6.03;2.20;;;;;;;;;;5073000;28;20895;-84
2023/03/13 04:04:00;;;;;;;7.00;3.60;;;;;;;;;;5056292;28;20232;-84
2023/03/13 04:06:30;;;;;;;7.93;3.22;;;;;;;;;;5072300;28;20299;-85
2023/03/13 04:08:57;;;;;;;7.15;2.50;;;;;;;;;;5073747;28;20216;-84
2023/03/13 04:11:28;;;;;;;7.35;2.72;;;;;;;;;;5073628;28;20203;-85
2023/03/13 04:13:55;;;;;;;5.68;2.00;;;;;;;;;;5073897;28;20200;-85
2023/03/13 04:16:24;;;;;;;7.15;2.72;;;;;;;;;;5073396;28;20571;-87
2023/03/13 04:18:52;;;;;;;5.28;2.72;;;;;;;;;;5073219;28;20376;-85
2023/03/13 04:21:21;;;;;;;7.75;2.50;;;;;;;;;;5072946;28;20311;-85
2023/03/13 04:23:50;;;;;;;7.95;3.05;;;;;;;;;;5073335;28;20243;-85
2023/03/13 04:26:18;;;;;;;4.35;2.33;;;;;;;;;;5070800;28;20291;-87
2023/03/13 04:28:46;;;;;;;7.47;2.92;;;;;;;;;;5051565;28;20226;-85
2023/03/13 04:31:14;;;;;;;3.40;2.13;;;;;;;;;;5052185;28;20205;-85
2023/03/13 04:33:42;;;;;;;6.18;2.72;;;;;;;;;;5052372;28;20213;-85
2023/03/13 04:36:10;;;;;;;3.88;1.85;;;;;;;;;;5053354;28;20229;-85
2023/03/13 04:38:39;;;;;;;6.70;2.45;;;;;;;;;;5052637;28;20260;-84
2023/03/13 04:41:08;;;;;;;3.28;2.20;;;;;;;;;;5053390;28;20309;-85
2023/03/13 04:43:36;;;;;;;5.70;2.38;;;;;;;;;;5053511;28;20205;-86
2023/03/13 04:46:04;;;;;;;3.22;1.90;;;;;;;;;;5053911;28;20678;-85
2023/03/13 04:48:32;;;;;;;6.75;3.22;;;;;;;;;;5051462;28;20600;-85
2023/03/13 04:50:59;;;;;;;5.13;2.42;;;;;;;;;;5053167;28;20225;-85
2023/03/13 04:53:26;;;;;;;2.25;1.83;;;;;;;;;;5052565;28;20284;-85
2023/03/13 04:55:54;;;;;;;4.57;1.90;;;;;;;;;;5053054;28;20757;-85
2023/03/13 04:58:23;;;;;;;6.95;2.35;;;;;;;;;;5072634;28;20264;-85
2023/03/13 05:00:50;;;;;;;5.80;2.38;;;;;;;;;;5073192;28;20568;-85
2023/03/13 05:03:18;;;;;;;4.80;2.70;;;;;;;;;;5073138;28;20287;-85
2023/03/13 05:05:45;;;;;;;7.90;3.05;;;;;;;;;;5073038;28;20233;-85
2023/03/13 05:08:13;;;;;;;3.00;2.22;;;;;;;;;;5073124;28;20311;-85
2023/03/13 05:10:42;;;;;;;4.45;2.00;;;;;;;;;;5073003;28;20288;-84
2023/03/13 05:13:10;;;;;;;4.20;1.75;;;;;;;;;;5075160;28;20207;-86
2023/03/13 05:15:39;;;;;;;2.38;1.42;;;;;;;;;;5077507;28;20623;-84
2023/03/13 05:18:06;;;;;;;5.47;2.28;;;;;;;;;;5077528;28;20260;-86
2023/03/13 05:20:34;;;;;;;4.18;1.65;;;;;;;;;;5076783;28;20307;-85
2023/03/13 05:23:01;;;;;;;2.72;1.92;;;;;;;;;;5077646;28;20228;-85
2023/03/13 05:25:29;;;;;;;3.05;1.80;;;;;;;;;;5077328;28;20247;-85
2023/03/13 05:27:56;;;;;;;3.38;1.83;;;;;;;;;;5076649;28;20281;-86
2023/03/13 05:30:24;;;;;;;5.75;2.05;;;;;;;;;;5076231;28;20248;-85
2023/03/13 05:32:53;;;;;;;2.75;2.00;;;;;;;;;;5076283;28;20232;-85
2023/03/13 05:35:20;;;;;;;3.97;2.42;;;;;;;;;;5076098;28;20284;-85
2023/03/13 05:37:48;;;;;;;3.53;1.80;;;;;;;;;;5076531;28;20278;-85
2023/03/13 05:40:15;;;;;;;2.83;2.08;;;;;;;;;;5075624;28;20292;-85
2023/03/13 05:42:43;;;;;;;5.60;1.80;;;;;;;;;;5076507;28;20293;-85
2023/03/13 05:45:12;;;;;;;4.28;2.08;;;;;;;;;;5076257;28;20295;-85
2023/03/13 05:47:40;;;;;;;2.72;2.05;;;;;;;;;;5076153;28;20201;-85
2023/03/13 05:50:10;;;;;;;2.45;1.83;;;;;;;;;;5076160;28;20557;-85
2023/03/13 05:52:38;;;;;;;3.58;1.95;;;;;;;;;;5079877;28;20299;-84
2023/03/13 05:55:06;;;;;;;2.95;1.50;;;;;;;;;;5076388;28;20240;-85
2023/03/13 05:57:34;;;;;;;3.13;1.83;;;;;;;;;;5062831;28;20206;-84
2023/03/13 06:00:01;;;;;;;2.63;1.60;;;;;;;;;;5055707;28;20208;-84
2023/03/13 06:02:29;;;;;;;2.78;1.50;;;;;;;;;;5056329;28;20221;-85
2023/03/13 06:04:56;;;;;;;2.10;1.65;;;;;;;;;;5055971;28;20240;-84
2023/03/13 06:07:25;;;;;;;3.15;1.38;;;;;;;;;;5056231;28;20324;-85
2023/03/13 06:09:53;;;;;;;2.53;1.63;;;;;;;;;;5055819;28;20289;-84
2023/03/13 06:12:20;;;;;;;2.35;1.40;;;;;;;;;;5055881;28;20228;-84
2023/03/13 06:14:48;;;;;;;2.88;1.85;;;;;;;;;;5055858;28;20233;-85
2023/03/13 06:17:15;;;;;;;3.05;1.50;;;;;;;;;;5055921;28;20244;-85
2023/03/13 06:19:43;;;;;;;4.78;1.35;;;;;;;;;;5055361;28;20706;-85
2023/03/13 06:22:10;;;;;;;2.40;1.33;;;;;;;;;;5055713;28;20225;-85
2023/03/13 06:24:39;;;;;;;3.60;1.80;;;;;;;;;;5055248;28;20237;-85
2023/03/13 06:27:08;;;;;;;4.53;1.65;;;;;;;;;;5065073;28;20295;-85
2023/03/13 06:29:35;;;;;;;2.65;1.50;;;;;;;;;;5071274;28;20222;-85
2023/03/13 06:32:03;;;;;;;5.22;1.60;;;;;;;;;;5067527;28;20288;-85
2023/03/13 06:34:31;;;;;;;2.33;1.58;;;;;;;;;;5075554;28;20235;-83
2023/03/13 06:36:59;;;;;;;1.40;1.30;;;;;;;;;;5075102;28;20236;-84
2023/03/13 06:39:27;;;;;;;3.30;1.27;;;;;;;;;;5075170;28;20289;-83
2023/03/13 06:41:55;;;;;;;1.50;1.15;;;;;;;;;;5075348;28;20307;-83
2023/03/13 06:44:23;;;;;;;2.10;1.33;;;;;;;;;;5074796;28;20296;-84
2023/03/13 06:46:50;;;;;;;1.27;1.20;;;;;;;;;;5074673;28;20272;-83
2023/03/13 06:49:18;;;;;;;2.42;1.50;;;;;;;;;;5074441;28;20217;-85
2023/03/13 06:51:45;;;;;;;1.88;1.05;;;;;;;;;;5074537;28;20292;-85
2023/03/13 06:54:13;;;;;;;1.30;1.20;;;;;;;;;;5074940;28;20295;-85
2023/03/13 06:56:40;;;;;;;2.10;1.17;;;;;;;;;;5074757;28;20298;-85
2023/03/13 06:59:09;;;;;;;0.85;0.85;;;;;;;;;;5073658;28;20225;-84
2023/03/13 07:01:37;;;;;;;3.13;1.25;;;;;;;;;;5074775;28;20316;-84
2023/03/13 07:04:04;;;;;;;2.38;1.17;;;;;;;;;;5075079;28;20296;-85
2023/03/13 07:06:31;;;;;;;1.25;1.15;;;;;;;;;;5074590;28;20220;-85
2023/03/13 07:08:59;;;;;;;3.95;1.70;;;;;;;;;;5074211;28;20275;-85
2023/03/13 07:11:26;;;;;;;1.40;0.93;;;;;;;;;;5074612;28;20662;-85
2023/03/13 07:13:56;;;;;;;1.23;1.15;;;;;;;;;;5074219;28;20244;-86
2023/03/13 07:16:25;;;;;;;3.35;1.45;;;;;;;;;;5074362;28;20207;-85
2023/03/13 07:18:52;;;;;;;0.98;0.95;;;;;;;;;;5074036;28;21029;-85
2023/03/13 07:21:20;;;;;;;7.38;2.17;;;;;;;;;;5073931;28;20240;-84
2023/03/13 07:23:47;;;;;;;1.10;1.00;;;;;;;;;;5073964;28;20279;-85
2023/03/13 07:26:16;;;;;;;3.08;1.65;;;;;;;;;;5073661;28;20300;-84
2023/03/13 07:28:44;;;;;;;1.45;1.25;;;;;;;;;;5073718;28;20682;-85
2023/03/13 07:31:13;;;;;;;1.00;1.00;;;;;;;;;;5073898;28;20223;-85
2023/03/13 07:33:43;;;;;;;1.25;1.15;;;;;;;;;;5073859;28;20207;-86
2023/03/13 07:36:11;;;;;;;2.97;1.17;;;;;;;;;;5074165;28;20212;-84
2023/03/13 07:38:39;;;;;;;1.20;1.10;;;;;;;;;;5073466;28;20308;-85
2023/03/13 07:41:07;;;;;;;1.90;1.10;;;;;;;;;;5073971;28;20292;-84
2023/03/13 07:43:35;;;;;;;0.95;0.95;;;;;;;;;;5073680;28;20316;-85
2023/03/13 07:46:04;;;;;;;1.30;1.20;;;;;;;;;;5073958;28;20658;-84
2023/03/13 07:48:34;;;;;;;2.42;1.58;;;;;;;;;;5072974;28;20312;-84
2023/03/13 07:51:04;;;;;;;2.47;1.30;;;;;;;;;;5073431;28;20200;-84
2023/03/13 07:53:31;;;;;;;1.35;1.25;;;;;;;;;;5073042;28;20722;-85
2023/03/13 07:56:01;;;;;;;1.48;1.20;;;;;;;;;;5074212;28;20292;-85
2023/03/13 07:58:31;;;;;;;2.05;1.20;;;;;;;;;;5054825;28;20239;-85
2023/03/13 08:00:58;;;;;;;1.45;1.00;;;;;;;;;;5073619;28;20201;-85
2023/03/13 08:03:27;;;;;;;1.58;0.98;;;;;;;;;;5073350;28;20231;-84
2023/03/13 08:06:03;;;;;;;1.50;1.20;;;;;;;;;;5073498;28;20246;-86
2023/03/13 08:08:31;;;;;;;1.73;1.50;;;;;;;;;;5072939;28;20720;-85
2023/03/13 08:11:02;;;;;;;1.10;1.00;;;;;;;;;;5073281;28;20308;-84
2023/03/13 08:13:30;;;;;;;1.02;1.00;;;;;;;;;;5073264;28;20284;-84
2023/03/13 08:16:06;;;;;;;1.10;1.00;;;;;;;;;;5073101;28;20205;-85
2023/03/13 08:18:34;;;;;;;1.77;1.10;;;;;;;;;;5073255;28;20220;-86
2023/03/13 08:21:04;;;;;;;1.20;1.10;;;;;;;;;;5074176;28;20205;-87
2023/03/13 08:23:32;;;;;;;1.73;1.00;;;;;;;;;;5074290;28;20227;-85
2023/03/13 08:26:04;;;;;;;1.48;0.88;;;;;;;;;;5073913;28;20220;-84
2023/03/13 08:28:31;;;;;;;1.02;1.02;;;;;;;;;;5073425;28;20315;-86
2023/03/13 08:30:59;;;;;;;1.00;0.80;;;;;;;;;;5073702;28;20240;-84
2023/03/13 08:33:26;;;;;;;0.93;0.93;;;;;;;;;;5073413;28;20243;-86
2023/03/13 08:35:53;;;;;;;2.03;1.20;;;;;;;;;;5074136;28;20283;-85
2023/03/13 08:38:22;;;;;;;1.42;1.35;;;;;;;;;;5073731;28;20671;-86
2023/03/13 08:40:51;;;;;;;0.98;0.90;;;;;;;;;;5073102;28;20225;-86
2023/03/13 08:43:18;;;;;;;1.20;1.10;;;;;;;;;;5073761;28;20256;-86
2023/03/13 08:45:46;;;;;;;1.10;1.00;;;;;;;;;;5073929;28;20694;-86
2023/03/13 08:48:14;;;;;;;1.10;1.10;;;;;;;;;;5073679;28;20685;-84
2023/03/13 08:50:41;;;;;;;1.00;0.95;;;;;;;;;;5073437;28;20193;-86
2023/03/13 08:53:09;;;;;;;1.10;1.10;;;;;;;;;;5072430;28;20284;-86
2023/03/13 08:55:37;;;;;;;1.25;1.15;;;;;;;;;;5073030;28;20291;-85
2023/03/13 08:58:05;;;;;;;1.75;1.10;;;;;;;;;;5073529;28;20252;-87
2023/03/13 09:00:32;;;;;;;0.85;0.85;;;;;;;;;;5073239;28;20243;-86
2023/03/13 09:03:00;;;;;;;0.98;0.90;;;;;;;;;;5074645;28;20326;-86
2023/03/13 09:05:27;;;;;;;1.10;1.00;;;;;;;;;;5074267;28;20209;-85
2023/03/13 09:07:55;;;;;;;1.55;1.00;;;;;;;;;;5074034;28;20227;-85
2023/03/13 09:10:22;;;;;;;1.35;0.90;;;;;;;;;;5073680;28;20292;-85
2023/03/13 09:12:51;;;;;;;1.05;0.80;;;;;;;;;;5072977;28;20197;-84
2023/03/13 09:15:19;;;;;;;1.15;1.05;;;;;;;;;;5072505;28;20292;-85
2023/03/13 09:17:46;;;;;;;0.85;0.85;;;;;;;;;;5072620;28;20273;-85
2023/03/13 09:20:14;;;;;;;1.00;0.90;;;;;;;;;;5071533;28;20295;-86
2023/03/13 09:22:41;;;;;;;1.58;1.00;;;;;;;;;;5071665;28;20213;-86
2023/03/13 09:25:10;;;;;;;1.52;1.42;;;;;;;;;;5072065;28;20201;-84
2023/03/13 09:27:37;;;;;;;0.80;0.80;;;;;;;;;;5072232;28;20204;-86
2023/03/13 09:30:08;;;;;;;1.30;1.20;;;;;;;;;;5072101;28;20734;-84
2023/03/13 09:32:36;;;;;;;1.15;1.05;;;;;;;;;;5072800;28;20564;-87
2023/03/13 09:35:04;;;;;;;1.05;1.00;;;;;;;;;;5072551;28;20203;-86
2023/03/13 09:37:31;;;;;;;0.80;0.80;;;;;;;;;;5072129;28;20590;-85
2023/03/13 09:39:59;;;;;;;0.98;0.88;;;;;;;;;;5071920;28;20717;-86
2023/03/13 09:42:35;;;;;;;1.23;1.13;;;;;;;;;;5072705;28;20535;-85
2023/03/13 09:45:12;;;;;;;1.52;1.42;;;;;;;;;;5072958;28;20212;-86
2023/03/13 09:47:43;;;;;;;2.20;1.20;;;;;;;;;;5072805;28;20215;-86
2023/03/13 09:50:17;;;;;;;0.88;0.88;;;;;;;;;;5074185;28;20205;-86
2023/03/13 09:52:44;;;;;;;1.30;1.20;;;;;;;;;;5072861;28;20212;-86
2023/03/13 09:55:20;;;;;;;1.05;0.90;;;;;;;;;;5073068;28;20296;-86
2023/03/13 09:57:53;;;;;;;1.23;1.13;;;;;;;;;;5057322;28;20201;-86
2023/03/13 10:00:26;;;;;;;1.20;1.20;;;;;;;;;;5070786;28;20204;-86
2023/03/13 10:03:00;;;;;;;1.52;1.00;;;;;;;;;;5076084;28;20217;-86
2023/03/13 10:05:30;;;;;;;1.20;1.10;;;;;;;;;;5075835;28;20287;-85
2023/03/13 10:08:00;;;;;;;1.40;1.30;;;;;;;;;;5075945;28;20631;-86
2023/03/13 10:10:37;;;;;;;2.58;1.42;;;;;;;;;;5075177;28;20189;-85
2023/03/13 10:13:15;;;;;;;1.58;1.48;;;;;;;;;;5075672;28;20200;-86
2023/03/13 10:15:49;;;;;;;2.22;2.03;;;;;;;;;;5075838;28;20189;-85
2023/03/13 10:18:20;;;;;;;2.53;2.00;;;;;;;;;;5075681;28;20315;-86
2023/03/13 10:20:49;;;;;;;1.40;1.30;;;;;;;;;;5075193;28;20221;-86
2023/03/13 10:23:24;;;;;;;1.80;1.70;;;;;;;;;;5075673;28;20264;-85
2023/03/13 10:25:51;;;;;;;1.63;1.52;;;;;;;;;;5075461;28;20288;-84
2023/03/13 10:28:21;;;;;;;1.80;1.70;;;;;;;;;;5075367;28;20312;-86
2023/03/13 10:30:53;;;;;;;2.60;1.90;;;;;;;;;;5074445;28;20208;-86
2023/03/13 10:33:25;;;;;;;1.48;1.38;;;;;;;;;;5075172;28;20236;-85
2023/03/13 10:36:07;;;;;;;1.60;1.17;;;;;;;;;;5075736;28;20264;-85
2023/03/13 10:38:45;;;;;;;2.28;1.10;;;;;;;;;;5074898;28;20764;-84
2023/03/13 10:41:25;;;;;;;1.30;1.30;;;;;;;;;;5076137;28;20185;-87
2023/03/13 10:43:55;;;;;;;0.93;0.93;;;;;;;;;;5075894;28;20209;-86
2023/03/13 10:46:29;;;;;;;1.33;1.20;;;;;;;;;;5075760;28;20201;-87
2023/03/13 10:48:57;;;;;;;1.45;1.30;;;;;;;;;;5074437;28;20217;-87
2023/03/13 10:51:34;;;;;;;1.33;1.20;;;;;;;;;;5075597;28;20207;-87
2023/03/13 10:54:03;;;;;;;0.90;0.90;;;;;;;;;;5075823;28;20201;-86
2023/03/13 10:56:31;;;;;;;1.25;0.90;;;;;;;;;;5075633;28;20308;-86
2023/03/13 10:58:58;;;;;;;1.02;0.93;;;;;;;;;;5075085;28;20217;-86
2023/03/13 11:01:30;;;;;;;1.20;1.20;;;;;;;;;;5075640;28;20232;-87
2023/03/13 11:03:59;;;;;;;1.52;1.42;;;;;;;;;;5075665;28;20209;-87
2023/03/13 11:06:30;;;;;;;2.22;1.20;;;;;;;;;;5076019;28;20205;-86
2023/03/13 11:09:05;;;;;;;1.20;1.10;;;;;;;;;;5075737;28;20312;-86
2023/03/13 11:11:45;;;;;;;1.50;1.40;;;;;;;;;;5076049;28;20291;-85
2023/03/13 11:14:19;;;;;;;1.35;1.25;;;;;;;;;;5076739;28;20235;-85
2023/03/13 11:16:54;;;;;;;0.85;0.85;;;;;;;;;;5076141;28;20272;-86
2023/03/13 11:19:42;;;;;;;0.90;0.90;;;;;;;;;;5075334;28;20308;-85
2023/03/13 11:22:25;;;;;;;1.30;1.10;;;;;;;;;;5076943;28;20623;-86
2023/03/13 11:25:02;;;;;;;1.25;1.15;;;;;;;;;;5075841;28;20292;-85
2023/03/13 11:27:36;;;;;;;1.08;1.08;;;;;;;;;;5063473;28;20292;-86
2023/03/13 11:30:21;;;;;;;0.90;0.90;;;;;;;;;;5070389;28;20215;-86
2023/03/13 11:32:54;;;;;;;0.95;0.95;;;;;;;;;;5075532;28;20633;-86
2023/03/13 11:35:37;;;;;;;1.30;1.20;;;;;;;;;;5074440;28;20288;-87
2023/03/13 11:38:11;;;;;;;1.90;1.80;;;;;;;;;;5074604;28;20300;-86
2023/03/13 11:40:44;;;;;;;1.00;1.00;;;;;;;;;;5074343;28;20188;-86
2023/03/13 11:43:37;;;;;;;1.60;1.35;;;;;;;;;;5074349;28;20671;-87
2023/03/13 11:46:21;;;;;;;0.85;0.80;;;;;;;;;;5073779;28;20201;-86
2023/03/13 11:49:23;;;;;;;1.33;1.23;;;;;;;;;;5073853;28;20216;-86
2023/03/13 11:52:12;;;;;;;1.80;1.00;;;;;;;;;;5073749;28;20201;-86
2023/03/13 11:55:17;;;;;;;1.10;1.00;;;;;;;;;;5073973;28;20276;-86
2023/03/13 11:57:52;;;;;;;1.02;1.02;;;;;;;;;;5049096;28;20205;-86
2023/03/13 12:00:30;;;;;;;2.13;1.42;;;;;;;;;;5053490;28;20202;-86
2023/03/13 12:03:04;;;;;;;0.93;0.93;;;;;;;;;;5053953;28;20192;-87
2023/03/13 12:05:38;;;;;;;1.85;0.98;;;;;;;;;;5053971;28;20303;-86
2023/03/13 12:08:11;;;;;;;1.08;1.08;;;;;;;;;;5054342;28;20225;-86
2023/03/13 12:10:45;;;;;;;0.90;0.90;;;;;;;;;;5053962;28;20265;-87
2023/03/13 12:13:17;;;;;;;1.20;1.10;;;;;;;;;;5054450;28;20204;-87
2023/03/13 12:15:46;;;;;;;2.58;1.13;;;;;;;;;;5053183;28;20197;-87
2023/03/13 12:18:20;;;;;;;1.15;1.05;;;;;;;;;;5053754;28;20260;-87
2023/03/13 12:20:55;;;;;;;1.08;1.08;;;;;;;;;;5053908;28;20216;-86
2023/03/13 12:23:30;;;;;;;1.05;1.00;;;;;;;;;;5053407;28;20201;-87
2023/03/13 12:26:03;;;;;;;1.00;1.00;;;;;;;;;;5054178;28;20311;-86
2023/03/13 12:28:37;;;;;;;0.80;0.80;;;;;;;;;;5055918;28;20222;-84
2023/03/13 12:31:20;;;;;;;0.82;0.82;;;;;;;;;;5073353;28;20630;-85
2023/03/13 12:33:54;;;;;;;1.33;0.90;;;;;;;;;;5073204;28;20185;-85
2023/03/13 12:36:28;;;;;;;0.90;0.90;;;;;;;;;;5073011;28;20207;-83
2023/03/13 12:38:59;;;;;;;0.90;0.90;;;;;;;;;;5073094;28;20220;-86
2023/03/13 12:41:30;;;;;;;0.60;0.60;;;;;;;;;;5073157;28;20268;-84
2023/03/13 12:43:58;;;;;;;0.80;0.80;;;;;;;;;;5073016;28;20182;-84
2023/03/13 12:46:37;;;;;;;1.20;1.10;;;;;;;;;;5072800;28;20311;-84
2023/03/13 12:49:49;;;;;;;0.70;0.70;;;;;;;;;;5073013;28;20581;-84
2023/03/13 12:53:01;;;;;;;0.50;0.50;;;;;;;;;;5069784;28;20197;-84
2023/03/13 12:55:45;;;;;;;0.90;0.90;;;;;;;;;;5072639;28;20268;-85
2023/03/13 12:58:30;;;;;;;1.02;0.93;;;;;;;;;;5072878;28;20223;-83
2023/03/13 13:01:04;;;;;;;1.70;0.65;;;;;;;;;;5072876;28;20191;-85
2023/03/13 13:03:35;;;;;;;0.60;0.60;;;;;;;;;;5072816;28;20185;-83
2023/03/13 13:06:10;;;;;;;1.02;0.95;;;;;;;;;;5072146;28;20262;-85
2023/03/13 13:08:42;;;;;;;1.25;1.20;;;;;;;;;;5072326;28;20252;-83
2023/03/13 13:11:48;;;;;;;1.30;1.00;;;;;;;;;;5072972;28;20182;-85
2023/03/13 13:15:11;;;;;;;1.70;1.00;;;;;;;;;;5072530;28;20181;-83
2023/03/13 13:18:13;;;;;;;0.82;0.82;;;;;;;;;;4990712;28;20703;-83
2023/03/13 13:20:45;;;;;;;0.90;0.80;;;;;;;;;;4990516;28;20203;-84
2023/03/13 13:23:32;;;;;;;1.08;1.00;;;;;;;;;;5061738;28;20650;-84
2023/03/13 13:26:50;;;;;;;0.80;0.80;;;;;;;;;;5072406;28;20810;-84
2023/03/13 13:29:57;;;;;;;0.93;0.93;;;;;;;;;;5010156;28;20426;-84
2023/03/13 13:32:50;;;;;;;0.70;0.70;;;;;;;;;;5004431;28;20235;-84
2023/03/13 13:35:29;;;;;;;0.60;0.60;;;;;;;;;;5068947;28;20196;-84
2023/03/13 13:38:43;;;;;;;0.90;0.90;;;;;;;;;;5076181;28;20212;-84
2023/03/13 13:41:34;;;;;;;0.75;0.60;;;;;;;;;;5028695;28;20738;-84
2023/03/13 13:44:27;;;;;;;0.50;0.50;;;;;;;;;;5075893;28;20201;-85
2023/03/13 13:46:56;;;;;;;1.20;1.00;;;;;;;;;;5074071;28;20300;-83
2023/03/13 13:49:26;;;;;;;0.75;0.75;;;;;;;;;;5075294;28;20217;-83
2023/03/13 13:52:35;;;;;;;1.40;1.30;;;;;;;;;;5075465;28;20296;-85
2023/03/13 13:55:03;;;;;;;0.82;0.82;;;;;;;;;;5076232;28;20185;-84
2023/03/13 13:57:34;;;;;;;0.70;0.70;;;;;;;;;;5066286;28;20197;-83
2023/03/13 14:00:15;;;;;;;1.00;1.00;;;;;;;;;;5073286;28;20689;-84
2023/03/13 14:02:50;;;;;;;0.70;0.70;;;;;;;;;;5062752;28;20200;-85
2023/03/13 14:05:20;;;;;;;1.88;1.00;;;;;;;;;;5073539;28;20235;-85
2023/03/13 14:07:54;;;;;;;1.00;1.00;;;;;;;;;;5075223;28;20204;-84
2023/03/13 14:10:38;;;;;;;0.82;0.82;;;;;;;;;;5074072;28;20772;-84
2023/03/13 14:13:14;;;;;;;0.95;0.95;;;;;;;;;;5074131;28;20208;-85
2023/03/13 14:15:48;;;;;;;1.02;0.88;;;;;;;;;;5075541;28;20195;-84
2023/03/13 14:18:22;;;;;;;0.98;0.98;;;;;;;;;;5073884;28;20221;-85
2023/03/13 14:20:56;;;;;;;1.05;1.05;;;;;;;;;;5074958;28;20211;-83
2023/03/13 14:23:41;;;;;;;1.10;1.00;;;;;;;;;;5075479;28;20673;-84
2023/03/13 14:26:16;;;;;;;1.00;1.00;;;;;;;;;;5074949;28;20247;-84
2023/03/13 14:28:47;;;;;;;2.28;0.90;;;;;;;;;;5070740;28;20229;-84
2023/03/13 14:31:35;;;;;;;0.80;0.80;;;;;;;;;;5055129;28;20296;-83
2023/03/13 14:34:05;;;;;;;1.20;1.10;;;;;;;;;;5059755;28;20198;-86
2023/03/13 14:36:47;;;;;;;0.85;0.85;;;;;;;;;;5074995;28;20293;-84
2023/03/13 14:39:19;;;;;;;0.80;0.80;;;;;;;;;;5074407;28;20230;-84
2023/03/13 14:41:49;;;;;;;0.95;0.75;;;;;;;;;;5073938;28;20205;-83
2023/03/13 14:44:23;;;;;;;0.90;0.90;;;;;;;;;;5075037;28;20738;-84
2023/03/13 14:46:54;;;;;;;0.80;0.80;;;;;;;;;;5073709;28;20291;-84
2023/03/13 14:49:24;;;;;;;1.38;1.30;;;;;;;;;;5074402;28;20221;-84
2023/03/13 14:52:01;;;;;;;1.42;1.10;;;;;;;;;;5074427;28;20208;-83
2023/03/13 14:54:32;;;;;;;1.02;1.02;;;;;;;;;;5075054;28;20272;-84
2023/03/13 14:57:06;;;;;;;1.20;1.10;;;;;;;;;;5074698;28;20189;-84
2023/03/13 14:59:33;;;;;;;0.88;0.88;;;;;;;;;;5074175;28;20315;-84
2023/03/13 15:02:11;;;;;;;1.00;0.95;;;;;;;;;;5074778;28;20247;-85
2023/03/13 15:04:59;;;;;;;0.88;0.88;;;;;;;;;;5074455;28;20276;-83
2023/03/13 15:07:35;;;;;;;1.35;1.25;;;;;;;;;;5074320;28;20216;-85
2023/03/13 15:10:03;;;;;;;0.80;0.80;;;;;;;;;;5073731;28;20211;-84
2023/03/13 15:12:31;;;;;;;1.33;1.23;;;;;;;;;;5073879;28;20696;-84